< < Back
Terminal Aerodrome Forecast


Current Version              Previous Versions:   1  2  3  4  5  6  7  8  9  

Terminal Aerodrome Forecast

510
FTUS42 KILM 290522
TAFFLO
TAF
KFLO 290522Z 2906/3006 03007KT P6SM VCSH SCT015 BKN070
     FM290900 03009KT 6SM BR VCSH BKN008 OVC015
     FM291300 08008KT 6SM -SHRA BKN015
     FM291700 08008KT 6SM -SHRA BKN025
     FM300000 02004KT 6SM -SHRA SCT006 BKN015=

Latest METAR

365
SAUS70 KWBC 291900 RRA
MTRFLO
METAR KFLO 291853Z 09015G22KT 10SM FEW030 BKN039 BKN055 29/22 A2993 RMK
AO2 SLP133 T02940217


USA.gov is the U.S. government's official web portal to all federal, state and local government web resources and services.